Accueil
METAR-TAF:

METAR-TAF

Aéroports :

Shanghai-Pudong, Chine

Aéroport international de Shanghai-Pudong

latitude: 31-07N, longitude: 121-46E, altitude: 4 m

Observation

Le bulletin a été fait il y a 41 minutes, à 00:00 UTC
Vent 6 kt de sud/sud-est
Température 32°C
Humidité 67%
Pression 1006 hPa
Visibilité 10 km ou plus
pas de nuages en-dessous de 1500 mètres et pas de cumulonimbus.

METAR: ZSPD 270000Z 16003MPS CAVOK 32/25 Q1006 NOSIG

Heure: 08:41 (00:41 UTC)

Prévision

Le bulletin a été fait il y a 3 heures et 25 minutes, à 21:16 UTC
Prévision valable du 27 à 00 UTC au 27 à 24 UTC
Vent 8 kt de est/sud-est
Visibilité: 6000 m
Nuages épars à une hauteur de 1600 ft

TAF: ZSPD 262116Z 2700/2724 11004MPS 6000 SCT016 TX36/2706Z TN28/2721Z

Observations et prévisions météorologiques de plus de 4000 aéroports (messages METAR et TAF).

Les stations disponibles sont représentées par des disques jaunes et rouges sur la carte.

Passer la souris dessus pour voir le nom de la station.

Cliquer dessus pour voir les observations et prévisions météorologiques.

Pour changer de carte: cliquez sur les boutons verts avec une croix noire pour zoomer, sur le bouton vert avec un tiret pour effectuer un zoom arrière, ou sur les flèches vertes pour les cartes adjacentes.


METAR-TAF: